Relevés horaires Koksijde (Belgique)


Relevés horaires à Koksijde - Lundi 17 Févr. 2014
Heure UTC1 Température [°C] Vent [km/h] Hum. [%] Pres.4 [hPa] Visi. [Km] Nébu. [octa] Préc.5 [mm] Cond.
2m. Res. Ros. Dir.2 Vit. Moy. Raf.3
23:00 6.5 4.2 3.9 SSE 11.1 11.1 14.8 83 1013.2(0.0/3h) 20 7/8 -- --
22:00 5.9 4.9 3.9 SSE 5.6 9.3 11.1 87 1013.4(0.4/3h) 20 7/8 -- --
21:00 6.6 5.2 3.9 SSE 7.4 11.1 16.7 83 1013.4(0.1/3h) 25 7/8 -- --
20:00 6.6 5.2 4.2 SSE 7.4 9.3 11.1 85 1013.2(0.8/3h) 25 7/8 -- --
19:00 7.0 5.2 4.4 SSE 9.3 11.1 16.7 83 1013(0.3/3h) 25 7/8 -- --
18:00 7.4 5.3 4.5 S 11.1 13.0 18.5 82 1013.2(0.6/3h) 25 7/8 0/0h
--
17:00 7.5 5.4 4.7 SSE 11.1 13.0 14.8 82 1012.4(-0.3/3h) 25 7/8 -- --
16:00 8.3 6.1 5.3 SSE 13.0 13.0 16.7 81 1012.5(0.1/3h) 25 7/8 -- --
15:00 9.0 7.2 5.9 S 11.1 13.0 18.5 81 1012.5(0.4/3h) 25 7/8 -- --
14:00 8.8 6.7 5.7 S 13.0 13.0 18.5 81 1012.7(0.5/3h) 30 7/8 -- --
13:00 10.0 8.5 6.4 S 11.1 13.0 16.7 78 1012.4(0.4/3h) 20 7/8 -- --
11:00 8.3 6.7 5.7 S 9.3 9.3 13.0 84 1012.2(1.1/3h) 20 6/8 -- --
10:00 7.5 5.8 5.3 SSO 9.3 9.3 13.0 86 1012(1.5/3h) 20 5/8 -- --
09:00 6.0 4.5 4.8 S 7.4 7.4 11.1 92 1011.5(1.6/3h) 20 3/8 -- --
08:00 4.4 3.2 3.8 S 5.6 5.6 9.3 96 1011(1.5/3h) 10 4/8 -- --
07:00 4.3 4.3 3.7 S 3.7 3.7 7.4 96 1010.5(1.1/3h) 8 6/8 -- --
06:00 4.0 4.0 3.6 SSO 3.7 5.6 7.4 97 1009.9(0.8/3h) 15 7/8 0/0h
--
05:00 4.6 4.6 4.1 SSO 3.7 5.6 7.4 97 1009.5(0.3/3h) 15 7/8 -- --
04:00 4.5 4.5 3.8 SSO 3.7 3.7 7.4 95 1009.2(0.0/3h) 15 7/8 -- --
03:00 4.1 4.1 3.4 NNO 1.9 3.7 5.6 95 1009(-0.4/3h) 15 7/8 -- --
02:00 2.4 2.4 1.7 NNO 1.9 1.9 3.7 95 1009(-0.3/3h) 10 3/8 -- --
01:00 4.0 4.0 2.8 NNO 1.9 3.7 5.6 92 1009.4(-0.4/3h) 15 6/8 -- --
00:00 3.9 3.9 2.5 SSE 3.7 5.6 7.4 91 1009.5(-0.6/3h) 15 4/8 0/0h
--

1 Coordinated Universal Time. Actuellement il est 20:00 locale et 18:00 UTC.

2 Le vent souffle depuis la direction indiquée vers la direction oposée.

3 Les rafales max. sont disponible 40 min après l'heure du relevé.

4 Pour les stations d'altitude (plus de 600m) le géopotentiel du niveau le plus proche de la pression obligatoire est indiqué.

5 Les stations disposant d'un diffuseur peuvent indiquer "trace". Cela signifie que des précipitations ont touchés le sol mais que la quantité est inférieure à 0.1 mm.

Récapitulatif de la journée
Température [°C] Vent [km/h] Ensoleillement4 [h] Precipitations totale5 [mm] Pression [Hpa]
Min1 Max.2 Moy.3 Max. Min Max.
2.2 10.1 8.5 18.5 0 h 0 min 0 1009.0 1013.4

1 Température minimale relevée entre 18:00 UTC la veille et 18:00 UTC le jour donné.

2 Température maximale relevée entre 06:00 UTC le jour donné et 06:00 UTC le lendemain.

3 Vent moyen de la journée basé sur les relevés horaires.

4 Ensoleillement en heures relevé entre 06:00 UTC la veille et 06:00 UTC le jour donné.

5 Précipitations totales tombées entre 06:00 UTC la jour donné et 06:00 UTC le lendemain.

Graphiques horaires